Time;durP1;ratioP1;P1;durP2;ratioP2;P2;SDS_P1;SDS_P2;PMS_P1;PMS_P2;Temp;Humidity;BMP_temperature;BMP_pressure;BME280_temperature;BME280_humidity;BME280_pressure;Samples;Min_cycle;Max_cycle;Signal;HPM_P1;HPM_P2
2021/07/30 00:00:57;;;;;;;10.13;3.80;;;;;;;25.99;35.25;99986.25;5113186;28;20165;-72
2021/07/30 00:03:23;;;;;;;7.05;3.30;;;;;;;25.93;35.03;99979.59;5112481;28;20035;-73
2021/07/30 00:05:52;;;;;;;6.40;3.55;;;;;;;25.89;35.02;99981.84;5112718;28;20028;-73
2021/07/30 00:08:19;;;;;;;5.25;3.92;;;;;;;25.86;35.64;99983.56;5113465;28;20124;-72
2021/07/30 00:10:45;;;;;;;10.02;3.60;;;;;;;25.82;35.78;99987.81;5113348;28;20027;-74
2021/07/30 00:13:12;;;;;;;8.80;3.83;;;;;;;25.73;36.05;99987.81;5112833;28;20059;-72
2021/07/30 00:15:37;;;;;;;9.40;3.83;;;;;;;25.73;35.80;99991.44;5112014;28;20028;-72
2021/07/30 00:18:03;;;;;;;6.40;3.58;;;;;;;25.73;36.04;99987.81;5129759;27;20027;-73
2021/07/30 00:20:28;;;;;;;5.05;4.38;;;;;;;25.68;36.99;99991.28;5112180;28;20039;-73
2021/07/30 00:22:54;;;;;;;5.97;3.58;;;;;;;25.69;37.03;99992.84;5129845;27;20441;-73
2021/07/30 00:25:20;;;;;;;7.22;3.85;;;;;;;25.52;37.67;99967.50;5112742;28;20031;-72
2021/07/30 00:27:46;;;;;;;6.55;3.30;;;;;;;25.68;37.84;99983.53;5113226;28;20466;-72
2021/07/30 00:30:12;;;;;;;3.50;3.20;;;;;;;25.72;37.75;99986.97;5112895;28;20033;-72
2021/07/30 00:32:38;;;;;;;4.20;3.45;;;;;;;25.70;37.98;99985.88;5130020;28;20030;-73
2021/07/30 00:35:04;;;;;;;8.48;3.75;;;;;;;25.63;38.47;99980.50;5112602;28;20416;-73
2021/07/30 00:37:30;;;;;;;8.13;3.50;;;;;;;25.61;38.72;99990.28;5112556;28;20025;-73
2021/07/30 00:39:55;;;;;;;10.40;3.83;;;;;;;25.53;39.34;99988.22;5129981;28;20046;-73
2021/07/30 00:42:21;;;;;;;5.93;4.05;;;;;;;25.50;39.74;99972.06;5112758;28;20420;-74
2021/07/30 00:44:49;;;;;;;3.83;3.50;;;;;;;25.58;40.83;99984.75;5112380;28;20035;-72
2021/07/30 00:47:15;;;;;;;5.40;3.63;;;;;;;25.67;40.79;99986.81;5112487;28;20044;-72
2021/07/30 00:49:41;;;;;;;5.93;3.70;;;;;;;25.82;43.39;99979.28;5112723;28;20074;-74
2021/07/30 00:52:06;;;;;;;9.65;3.83;;;;;;;25.70;43.05;99980.19;5112436;28;20019;-74
2021/07/30 00:54:33;;;;;;;6.95;3.72;;;;;;;25.69;42.99;99987.16;5112927;28;20035;-73
2021/07/30 00:56:59;;;;;;;4.50;3.72;;;;;;;25.63;43.12;99983.34;5112325;28;20028;-73
2021/07/30 00:59:24;;;;;;;5.78;3.65;;;;;;;25.67;43.22;99975.41;5129413;28;20027;-74
2021/07/30 01:01:50;;;;;;;4.03;3.58;;;;;;;25.69;43.75;99970.06;5129718;28;20031;-75
2021/07/30 01:04:16;;;;;;;9.63;4.20;;;;;;;25.87;45.06;99970.09;5112313;28;20043;-73
2021/07/30 01:06:42;;;;;;;7.32;3.70;;;;;;;25.75;44.65;99977.53;5112172;28;20024;-74
2021/07/30 01:09:08;;;;;;;6.00;3.70;;;;;;;25.76;45.26;99978.31;5129909;28;20063;-73
2021/07/30 01:11:35;;;;;;;4.20;3.72;;;;;;;25.76;45.47;99976.25;5112546;28;20048;-74
2021/07/30 01:14:00;;;;;;;7.07;3.80;;;;;;;25.84;45.51;99976.75;5112215;28;20027;-74
2021/07/30 01:16:26;;;;;;;7.30;4.30;;;;;;;25.86;46.15;99980.72;5113590;28;20051;-73
2021/07/30 01:18:51;;;;;;;7.45;3.47;;;;;;;25.81;46.12;99974.84;5115828;28;20410;-74
2021/07/30 01:21:23;;;;;;;4.47;3.20;;;;;;;25.88;46.22;99979.44;5116596;28;20028;-73
2021/07/30 01:23:49;;;;;;;8.02;4.03;;;;;;;25.73;46.66;99962.16;5116574;28;20024;-74
2021/07/30 01:26:16;;;;;;;4.85;3.40;;;;;;;25.82;47.18;99970.72;5132989;27;20111;-73
2021/07/30 01:28:42;;;;;;;12.18;4.75;;;;;;;25.87;47.28;99978.66;5133018;27;20027;-74
2021/07/30 01:31:08;;;;;;;3.78;3.35;;;;;;;25.85;47.16;99969.78;5133238;27;20093;-75
2021/07/30 01:33:34;;;;;;;5.70;3.35;;;;;;;25.82;47.85;99970.72;5115803;28;20474;-73
2021/07/30 01:35:59;;;;;;;4.75;4.05;;;;;;;25.81;47.55;99969.16;5115695;28;20027;-73
2021/07/30 01:38:25;;;;;;;8.02;3.97;;;;;;;25.79;48.50;99977.38;5115639;28;20032;-72
2021/07/30 01:40:50;;;;;;;6.40;3.47;;;;;;;25.66;49.13;99979.53;5115878;28;20052;-72
2021/07/30 01:43:16;;;;;;;7.45;3.78;;;;;;;25.64;49.40;99970.69;5115902;28;20036;-72
2021/07/30 01:45:41;;;;;;;6.13;4.00;;;;;;;25.64;49.61;99971.47;5132935;27;20028;-74
2021/07/30 01:48:07;;;;;;;4.70;3.70;;;;;;;25.69;49.90;99972.91;5115612;28;20027;-74
2021/07/30 01:50:33;;;;;;;4.85;3.70;;;;;;;25.82;50.25;99960.13;5115872;28;20081;-73
2021/07/30 01:52:58;;;;;;;5.60;3.67;;;;;;;25.75;50.67;99966.13;5115840;28;20411;-74
2021/07/30 01:55:24;;;;;;;4.50;4.07;;;;;;;25.71;50.50;99964.66;5115755;28;20027;-73
2021/07/30 01:57:51;;;;;;;4.10;3.55;;;;;;;25.76;50.87;99972.63;5117230;28;20038;-74
2021/07/30 02:00:17;;;;;;;5.03;4.50;;;;;;;25.86;51.34;99959.97;5098457;28;20032;-75
2021/07/30 02:02:42;;;;;;;3.47;3.20;;;;;;;25.74;50.86;99969.44;5115073;28;20031;-74
2021/07/30 02:05:09;;;;;;;4.85;3.63;;;;;;;25.73;51.41;99965.00;5115223;28;20020;-74
2021/07/30 02:07:37;;;;;;;4.25;3.85;;;;;;;25.70;51.32;99948.84;5114955;28;20031;-75
2021/07/30 02:10:07;;;;;;;4.57;3.28;;;;;;;25.62;51.32;99965.47;5115377;28;20051;-74
2021/07/30 02:14:14;;;;;;;4.25;3.30;;;;;;;25.67;51.40;99961.97;5111963;28;20040;-73
2021/07/30 02:15:19;;;;;;;6.85;3.90;;;;;;;25.64;51.17;99962.13;5116015;28;20027;-74
2021/07/30 02:17:45;;;;;;;4.00;3.60;;;;;;;25.72;51.12;99969.09;5132126;27;20473;-76
2021/07/30 02:20:11;;;;;;;5.07;3.92;;;;;;;25.68;50.95;99965.63;5115445;28;20071;-74
2021/07/30 02:22:37;;;;;;;6.82;4.75;;;;;;;25.72;51.30;99966.25;5115242;28;20110;-73
2021/07/30 02:25:03;;;;;;;5.55;3.83;;;;;;;25.70;50.56;99963.88;5115201;28;20028;-74
2021/07/30 02:27:28;;;;;;;4.00;3.60;;;;;;;25.58;51.11;99968.47;5113898;28;20381;-75
2021/07/30 02:29:54;;;;;;;10.73;8.85;;;;;;;25.53;50.81;99963.38;5114812;28;20034;-73
2021/07/30 02:32:19;;;;;;;17.38;14.52;;;;;;;25.53;51.17;99966.22;5114786;28;20028;-74
2021/07/30 02:34:45;;;;;;;15.45;13.85;;;;;;;25.51;51.24;99960.19;5114704;28;20050;-74
2021/07/30 02:37:10;;;;;;;9.30;4.53;;;;;;;25.63;51.15;99963.41;5115219;28;20024;-73
2021/07/30 02:39:36;;;;;;;7.68;4.80;;;;;;;25.48;51.57;99969.69;5132007;27;20427;-74
2021/07/30 02:42:02;;;;;;;4.43;4.03;;;;;;;25.57;51.76;99966.09;5114980;28;20079;-74
2021/07/30 02:44:27;;;;;;;3.75;3.42;;;;;;;25.38;52.52;99965.22;5114884;28;20470;-73
2021/07/30 02:46:53;;;;;;;3.92;3.63;;;;;;;25.35;52.47;99966.16;5114403;28;20031;-74
2021/07/30 02:49:18;;;;;;;5.68;3.67;;;;;;;25.25;52.84;99958.88;5131519;27;20176;-73
2021/07/30 02:51:44;;;;;;;5.15;3.50;;;;;;;25.25;53.42;99961.72;5114424;28;20028;-75
2021/07/30 02:54:09;;;;;;;4.75;3.55;;;;;;;25.16;53.92;99959.63;5113661;28;20027;-74
2021/07/30 02:56:35;;;;;;;6.15;4.55;;;;;;;25.24;54.32;99960.13;5114276;28;20016;-74
2021/07/30 02:59:01;;;;;;;4.80;4.32;;;;;;;25.21;53.89;99961.06;5131336;27;20026;-74
2021/07/30 03:01:27;;;;;;;3.92;3.58;;;;;;;25.21;54.19;99961.06;5114761;28;20024;-75
2021/07/30 03:03:53;;;;;;;5.55;3.70;;;;;;;25.13;54.01;99951.22;5114416;28;20427;-75
2021/07/30 03:06:18;;;;;;;6.95;5.55;;;;;;;25.17;53.51;99960.41;5114092;28;20363;-74
2021/07/30 03:08:46;;;;;;;6.35;4.88;;;;;;;25.20;53.49;99962.34;5114610;28;20032;-74
2021/07/30 03:11:12;;;;;;;11.77;8.55;;;;;;;25.23;53.86;99962.19;5114896;28;20024;-74
2021/07/30 03:13:37;;;;;;;7.28;6.60;;;;;;;25.22;53.69;99962.66;5114285;28;20038;-73
2021/07/30 03:16:04;;;;;;;6.65;5.93;;;;;;;25.18;54.01;99962.00;5130958;27;20390;-73
2021/07/30 03:18:30;;;;;;;5.80;4.72;;;;;;;25.21;54.30;99956.16;5115750;28;20035;-74
2021/07/30 03:20:55;;;;;;;5.82;3.85;;;;;;;25.31;53.88;99965.53;5113891;28;20043;-73
2021/07/30 03:23:21;;;;;;;5.97;3.70;;;;;;;25.26;54.08;99963.31;5131285;27;20038;-74
2021/07/30 03:25:47;;;;;;;4.28;3.88;;;;;;;25.19;54.21;99964.38;5114261;28;20030;-74
2021/07/30 03:28:13;;;;;;;5.10;3.85;;;;;;;25.21;54.51;99963.91;5131179;27;20361;-74
2021/07/30 03:30:38;;;;;;;5.72;4.32;;;;;;;25.17;54.57;99960.41;5113664;28;20539;-73
2021/07/30 03:33:04;;;;;;;9.35;3.78;;;;;;;25.13;54.82;99960.56;5130480;27;20043;-74
2021/07/30 03:35:30;;;;;;;7.60;4.65;;;;;;;25.13;54.93;99956.91;5114080;28;20031;-74
2021/07/30 03:37:56;;;;;;;4.97;3.95;;;;;;;25.13;54.50;99959.75;5113593;28;20089;-75
2021/07/30 03:40:22;;;;;;;5.78;4.72;;;;;;;25.11;54.75;99956.59;5112943;28;20028;-74
2021/07/30 03:42:47;;;;;;;5.80;5.22;;;;;;;25.16;54.95;99964.53;5113732;28;20041;-74
2021/07/30 03:45:16;;;;;;;8.15;6.50;;;;;;;25.03;55.16;99968.22;5113066;28;20023;-74
2021/07/30 03:47:42;;;;;;;6.97;6.38;;;;;;;25.01;55.04;99964.28;5113674;28;20462;-74
2021/07/30 03:50:08;;;;;;;8.77;7.22;;;;;;;25.04;54.90;99958.44;5113597;28;20038;-73
2021/07/30 03:52:33;;;;;;;14.23;8.30;;;;;;;25.08;54.56;99964.81;5113258;28;20027;-74
2021/07/30 03:54:59;;;;;;;10.27;7.32;;;;;;;25.10;54.84;99969.25;5113223;28;20031;-73
2021/07/30 03:57:27;;;;;;;11.05;7.53;;;;;;;25.14;54.76;99969.88;5113459;28;20034;-74
2021/07/30 03:59:54;;;;;;;8.45;7.65;;;;;;;25.12;54.69;99953.28;5113411;28;20549;-74
2021/07/30 04:02:19;;;;;;;8.25;7.30;;;;;;;25.17;54.41;99960.41;5113299;28;20035;-74
2021/07/30 04:04:45;;;;;;;7.22;6.53;;;;;;;25.22;54.45;99956.97;5113144;28;20489;-73
2021/07/30 04:07:10;;;;;;;7.13;6.25;;;;;;;25.23;54.32;99953.63;5130308;27;20481;-74
2021/07/30 04:09:36;;;;;;;6.90;5.63;;;;;;;25.29;54.72;99962.34;5113269;28;20039;-75
2021/07/30 04:12:02;;;;;;;7.20;5.40;;;;;;;25.35;54.71;99963.31;5130112;27;20492;-74
2021/07/30 04:14:27;;;;;;;5.25;4.50;;;;;;;25.20;54.86;99948.91;5113557;28;20034;-74
2021/07/30 04:16:53;;;;;;;8.52;5.65;;;;;;;25.38;54.71;99962.38;5112640;28;20108;-73
2021/07/30 04:19:18;;;;;;;4.90;4.13;;;;;;;25.48;54.62;99964.00;5112829;28;20049;-74
2021/07/30 04:21:44;;;;;;;4.50;4.10;;;;;;;25.52;54.04;99956.09;5112817;27;20134;-74
2021/07/30 04:24:09;;;;;;;4.70;4.20;;;;;;;25.70;53.82;99957.41;5112746;28;20027;-75
2021/07/30 04:26:35;;;;;;;8.35;5.63;;;;;;;25.92;53.29;99955.22;5112684;28;20096;-76
2021/07/30 04:29:03;;;;;;;9.95;3.47;;;;;;;26.13;52.80;99956.34;5112735;28;20023;-74
2021/07/30 04:34:50;;;;;;;5.65;3.95;;;;;;;26.53;51.76;99955.38;5114028;28;20034;-74
2021/07/30 04:37:15;;;;;;;9.73;3.67;;;;;;;26.80;51.28;99960.22;5112322;28;20027;-74
2021/07/30 04:39:41;;;;;;;5.95;4.18;;;;;;;27.01;50.51;99955.56;5112643;28;20078;-74
2021/07/30 04:42:06;;;;;;;6.38;3.92;;;;;;;27.19;50.23;99960.44;5112512;28;20027;-74
2021/07/30 04:44:32;;;;;;;4.93;3.63;;;;;;;27.45;49.39;99963.63;5112694;28;20031;-75
2021/07/30 04:46:58;;;;;;;7.50;4.50;;;;;;;27.74;48.59;99965.84;5129934;28;20019;-74
2021/07/30 04:49:24;;;;;;;6.20;4.20;;;;;;;27.97;47.75;99962.19;5130070;28;20058;-74
2021/07/30 04:51:49;;;;;;;5.88;3.67;;;;;;;28.15;47.45;99967.75;5116718;28;20027;-73
2021/07/30 04:54:15;;;;;;;6.88;3.90;;;;;;;28.44;46.83;99966.25;5116614;28;20485;-74
2021/07/30 04:56:41;;;;;;;4.38;3.70;;;;;;;28.73;46.42;99970.44;5133699;27;20043;-74
2021/07/30 04:59:06;;;;;;;4.75;4.07;;;;;;;28.96;45.24;99966.69;5117050;28;20035;-74
2021/07/30 05:01:32;;;;;;;6.18;4.13;;;;;;;29.27;44.44;99971.09;5133879;27;20032;-75
2021/07/30 05:03:57;;;;;;;5.72;3.70;;;;;;;29.62;43.42;99962.50;5116359;28;20065;-75
2021/07/30 05:06:26;;;;;;;6.15;3.95;;;;;;;29.95;42.67;99970.75;5116496;28;20066;-74
2021/07/30 05:08:51;;;;;;;6.43;4.07;;;;;;;30.32;41.51;99970.97;5116719;28;20042;-76
2021/07/30 05:11:17;;;;;;;3.97;3.67;;;;;;;30.62;40.87;99971.53;5116136;28;20024;-75
2021/07/30 05:13:43;;;;;;;4.97;3.67;;;;;;;30.83;40.79;99974.34;5116196;28;20035;-75
2021/07/30 05:16:11;;;;;;;3.80;3.40;;;;;;;31.16;39.87;99974.66;5117046;28;20029;-75
2021/07/30 05:18:37;;;;;;;7.32;4.28;;;;;;;31.58;38.73;99984.59;5116055;28;20040;-75
2021/07/30 05:21:12;;;;;;;5.28;3.83;;;;;;;31.92;37.63;99987.72;5133358;27;20031;-75
2021/07/30 05:23:39;;;;;;;8.13;3.95;;;;;;;32.14;37.45;99978.38;5099052;28;20468;-75
2021/07/30 05:26:05;;;;;;;6.20;3.78;;;;;;;32.48;36.42;99982.16;5115914;28;20020;-75
2021/07/30 05:28:31;;;;;;;5.63;3.75;;;;;;;32.95;35.63;99982.50;5133798;27;20439;-75
2021/07/30 05:30:58;;;;;;;8.50;4.35;;;;;;;33.34;34.76;99991.13;5132875;27;20450;-75
2021/07/30 05:33:29;;;;;;;6.63;3.88;;;;;;;33.54;34.74;99990.09;5116533;28;20028;-76
2021/07/30 05:35:56;;;;;;;4.93;3.65;;;;;;;33.65;34.33;99989.28;5115666;28;20038;-75
2021/07/30 05:38:22;;;;;;;8.55;4.03;;;;;;;33.58;34.30;99984.84;5115660;28;20115;-75
2021/07/30 05:40:48;;;;;;;6.47;3.53;;;;;;;33.80;34.05;99990.53;5115874;28;20111;-75
2021/07/30 05:43:14;;;;;;;6.75;3.30;;;;;;;33.74;33.44;99992.66;5132648;27;20031;-76
2021/07/30 05:45:40;;;;;;;4.43;3.30;;;;;;;34.40;31.94;99985.03;5115389;28;20024;-76
2021/07/30 05:48:07;;;;;;;5.05;3.05;;;;;;;34.72;31.88;99990.38;5115607;28;20035;-75
2021/07/30 05:50:33;;;;;;;5.32;3.47;;;;;;;34.96;31.66;99986.06;5115728;28;20027;-76
2021/07/30 05:52:58;;;;;;;6.13;3.22;;;;;;;35.18;29.93;99985.84;5115432;28;20031;-75
2021/07/30 05:55:27;;;;;;;3.50;3.03;;;;;;;35.43;28.43;99993.25;5115451;28;20036;-75
2021/07/30 05:57:52;;;;;;;4.45;3.35;;;;;;;35.68;27.00;99990.34;5132490;27;20035;-76
2021/07/30 06:00:18;;;;;;;9.02;3.08;;;;;;;35.53;27.78;99995.78;5115318;28;20024;-76
2021/07/30 06:02:44;;;;;;;4.47;2.95;;;;;;;36.03;26.91;99992.34;5114638;27;20390;-75
2021/07/30 06:05:10;;;;;;;4.30;3.20;;;;;;;36.22;26.46;99992.34;5115391;28;20023;-75
2021/07/30 06:07:35;;;;;;;3.85;3.40;;;;;;;36.63;25.99;99994.19;5115047;28;20039;-75
2021/07/30 06:10:02;;;;;;;7.43;3.15;;;;;;;36.67;23.95;99997.56;5115540;28;20027;-76
2021/07/30 06:12:28;;;;;;;7.82;3.40;;;;;;;36.78;23.21;100003.19;5115437;28;20031;-76
2021/07/30 06:14:54;;;;;;;3.50;3.20;;;;;;;36.91;22.51;100011.94;5114948;28;20031;-76
2021/07/30 06:17:20;;;;;;;5.38;3.85;;;;;;;36.94;22.48;100005.06;5114323;28;20055;-76
2021/07/30 06:19:45;;;;;;;7.45;3.53;;;;;;;36.75;21.21;100003.50;5114439;28;20194;-75
2021/07/30 06:22:11;;;;;;;4.18;2.92;;;;;;;36.27;22.28;100005.97;5114700;28;20038;-77
2021/07/30 06:24:38;;;;;;;6.53;3.38;;;;;;;36.12;21.98;100011.47;5131683;27;20089;-75
2021/07/30 06:27:04;;;;;;;3.63;3.33;;;;;;;35.57;23.72;100002.06;5115139;28;20035;-76
2021/07/30 06:29:30;;;;;;;6.25;3.45;;;;;;;36.16;23.13;100006.91;5114864;28;20047;-75
2021/07/30 06:31:55;;;;;;;4.15;3.38;;;;;;;36.45;23.03;100010.25;5131754;27;20455;-75
2021/07/30 06:34:24;;;;;;;4.53;3.33;;;;;;;36.33;23.15;100006.72;5114511;28;20031;-75
2021/07/30 06:36:56;;;;;;;4.25;3.85;;;;;;;36.54;21.72;100006.16;5114434;28;20031;-76
2021/07/30 06:39:22;;;;;;;4.45;3.13;;;;;;;36.98;20.85;100007.66;5115565;28;20024;-76
2021/07/30 06:41:48;;;;;;;3.53;3.13;;;;;;;36.05;22.06;100007.06;5131614;27;20058;-76
2021/07/30 06:44:13;;;;;;;8.85;3.83;;;;;;;35.64;23.33;100013.06;5114327;28;20478;-75
2021/07/30 06:46:39;;;;;;;5.45;3.80;;;;;;;35.98;23.35;100009.78;5131853;27;20023;-76
2021/07/30 06:49:05;;;;;;;5.55;4.07;;;;;;;36.65;22.84;100006.03;5114463;28;20034;-75
2021/07/30 06:51:31;;;;;;;5.25;3.85;;;;;;;36.69;23.82;100018.06;5114144;28;20359;-75
2021/07/30 06:53:56;;;;;;;5.13;4.40;;;;;;;36.90;22.54;100010.38;5114176;28;20086;-75
2021/07/30 06:56:22;;;;;;;6.47;4.00;;;;;;;36.81;21.99;100007.88;5131114;27;20467;-75
2021/07/30 06:58:47;;;;;;;8.38;4.75;;;;;;;37.10;21.89;100011.13;5131523;27;20027;-75
2021/07/30 07:01:13;;;;;;;5.60;4.10;;;;;;;37.27;21.84;100017.41;5114575;28;20049;-75
2021/07/30 07:03:39;;;;;;;9.77;5.72;;;;;;;36.80;22.78;100015.00;5113910;28;20106;-76
2021/07/30 07:06:04;;;;;;;10.15;4.95;;;;;;;36.58;22.36;100012.44;5114290;28;20031;-75
2021/07/30 07:08:30;;;;;;;11.02;6.68;;;;;;;36.65;23.45;100017.63;5131414;27;20019;-74
2021/07/30 07:10:57;;;;;;;12.02;6.95;;;;;;;36.56;23.75;100021.69;5131282;27;20039;-75
2021/07/30 07:13:22;;;;;;;10.25;6.82;;;;;;;36.21;24.22;100025.53;5113822;28;20024;-75
2021/07/30 07:15:48;;;;;;;8.90;6.70;;;;;;;35.52;24.58;100023.16;5131514;27;20084;-76
2021/07/30 07:18:14;;;;;;;11.35;6.28;;;;;;;36.10;23.92;100019.91;5130700;27;20047;-74
2021/07/30 07:20:40;;;;;;;9.95;4.85;;;;;;;36.49;23.18;100015.72;5131152;27;20024;-75
2021/07/30 07:23:06;;;;;;;6.30;4.55;;;;;;;36.02;23.54;100013.19;5131014;27;20084;-75
2021/07/30 07:25:32;;;;;;;6.82;4.63;;;;;;;35.98;22.92;100018.47;5130707;27;20047;-75
2021/07/30 07:27:58;;;;;;;7.38;3.58;;;;;;;36.47;21.70;100017.06;5113338;28;20035;-75
2021/07/30 07:30:24;;;;;;;6.45;3.03;;;;;;;36.94;21.27;100016.66;5113615;28;20028;-75
2021/07/30 07:32:49;;;;;;;4.50;2.85;;;;;;;36.17;21.66;100022.19;5113758;28;20042;-75
2021/07/30 07:35:15;;;;;;;3.58;2.33;;;;;;;36.11;21.84;100013.56;5113913;28;20020;-75
2021/07/30 07:37:41;;;;;;;4.70;2.85;;;;;;;36.36;22.35;100011.41;5113351;28;20474;-75
2021/07/30 07:40:07;;;;;;;3.85;3.00;;;;;;;36.75;21.35;100012.97;5130387;27;20122;-76
2021/07/30 07:42:33;;;;;;;8.68;3.33;;;;;;;36.50;22.27;100008.63;5130311;27;20027;-76
2021/07/30 07:45:00;;;;;;;5.30;3.95;;;;;;;36.53;22.63;100007.50;5130817;27;20080;-75
2021/07/30 07:47:27;;;;;;;6.53;3.60;;;;;;;36.27;22.63;100017.56;5130577;27;20485;-75
2021/07/30 07:49:52;;;;;;;7.40;4.25;;;;;;;36.60;22.43;100012.69;5113197;28;20081;-76
2021/07/30 07:52:18;;;;;;;11.73;4.05;;;;;;;36.77;22.11;100019.00;5113103;28;20036;-76
2021/07/30 07:54:44;;;;;;;5.32;3.78;;;;;;;36.59;22.24;100011.88;5113778;28;20172;-75
2021/07/30 07:57:09;;;;;;;7.25;4.03;;;;;;;37.09;21.64;100009.56;5130546;27;20427;-76
2021/07/30 07:59:36;;;;;;;5.97;3.63;;;;;;;36.89;22.25;100014.63;5130228;27;20433;-76
2021/07/30 08:02:06;;;;;;;7.93;3.50;;;;;;;36.33;22.45;100003.81;5113158;28;20036;-75
2021/07/30 08:04:32;;;;;;;7.50;3.53;;;;;;;36.50;22.27;100008.63;5130618;27;20374;-76
2021/07/30 08:07:03;;;;;;;9.68;4.30;;;;;;;36.38;21.91;100011.66;5113044;28;20107;-75
2021/07/30 08:09:29;;;;;;;9.48;4.07;;;;;;;36.44;21.91;100012.38;5113524;28;20031;-74
2021/07/30 08:11:56;;;;;;;7.93;4.63;;;;;;;35.69;22.62;100004.31;5114458;28;20036;-75
2021/07/30 08:14:22;;;;;;;8.13;4.97;;;;;;;35.58;22.77;100009.41;5113411;28;20415;-74
2021/07/30 08:16:49;;;;;;;7.80;4.63;;;;;;;35.58;22.75;99992.03;5112439;28;20058;-75
2021/07/30 08:19:14;;;;;;;7.88;4.47;;;;;;;35.94;22.11;100007.97;5114379;28;20046;-76
2021/07/30 08:21:40;;;;;;;6.20;4.75;;;;;;;35.86;21.76;100000.44;5112630;28;20471;-76
2021/07/30 08:24:06;;;;;;;5.03;4.32;;;;;;;36.98;20.79;99999.72;5112499;28;20031;-76
2021/07/30 08:26:32;;;;;;;5.82;4.57;;;;;;;37.05;20.48;100007.00;5111868;28;20028;-76
2021/07/30 08:28:58;;;;;;;8.25;5.00;;;;;;;37.20;20.48;100009.38;5112714;28;20023;-76
2021/07/30 08:31:24;;;;;;;9.55;4.75;;;;;;;37.02;20.83;100004.41;5130034;28;20035;-75
2021/07/30 08:33:50;;;;;;;5.68;4.63;;;;;;;37.39;19.86;100004.31;5113189;28;20377;-76
2021/07/30 08:36:16;;;;;;;8.45;4.40;;;;;;;37.28;20.20;99998.69;5129735;28;20119;-75
2021/07/30 08:38:44;;;;;;;7.03;4.95;;;;;;;37.87;19.96;99996.56;5112581;28;20024;-75
2021/07/30 08:41:09;;;;;;;6.72;3.90;;;;;;;38.57;19.34;99999.06;5112636;28;20088;-75
2021/07/30 08:43:35;;;;;;;8.32;3.50;;;;;;;38.75;19.12;99991.50;5112510;28;20024;-75
2021/07/30 08:46:01;;;;;;;7.20;4.43;;;;;;;38.28;19.26;100003.91;5112473;28;20020;-75
2021/07/30 08:48:33;;;;;;;5.60;3.38;;;;;;;37.63;20.32;99997.53;5112587;28;20024;-74
2021/07/30 08:51:02;;;;;;;6.37;3.07;;;;;;;37.29;20.61;99988.66;5112528;28;20032;-74
2021/07/30 08:53:28;;;;;;;7.63;3.95;;;;;;;37.69;19.60;99985.81;5112460;28;20032;-76
2021/07/30 08:55:53;;;;;;;7.47;3.75;;;;;;;37.76;19.38;99979.34;5112995;28;20034;-75
2021/07/30 08:58:20;;;;;;;8.45;4.05;;;;;;;38.51;19.00;99984.66;5129763;28;20027;-74
2021/07/30 09:00:47;;;;;;;8.27;4.75;;;;;;;37.59;19.51;99976.00;5112361;28;20020;-75
2021/07/30 09:03:13;;;;;;;5.93;4.03;;;;;;;37.99;19.20;99986.28;5130074;28;20042;-75
2021/07/30 09:05:39;;;;;;;8.63;3.65;;;;;;;38.90;18.35;99979.25;5112542;28;20412;-76
2021/07/30 09:08:06;;;;;;;3.97;3.15;;;;;;;38.81;17.54;99977.63;5129048;28;20059;-75
2021/07/30 09:10:34;;;;;;;5.97;3.03;;;;;;;38.97;17.67;99970.59;5112932;28;20096;-75
2021/07/30 09:13:13;;;;;;;4.22;3.08;;;;;;;38.62;18.15;99971.97;5112336;28;20123;-76
2021/07/30 09:15:38;;;;;;;3.75;3.05;;;;;;;39.63;16.93;99969.41;5112885;28;20047;-75
2021/07/30 09:18:04;;;;;;;7.25;3.97;;;;;;;40.22;16.92;99971.72;5111939;28;20490;-75
2021/07/30 09:20:30;;;;;;;7.13;3.80;;;;;;;40.73;16.56;99973.84;5129534;28;20462;-75
2021/07/30 09:22:55;;;;;;;5.88;3.10;;;;;;;40.95;16.12;99976.03;5112563;28;20032;-74
2021/07/30 09:25:37;;;;;;;7.45;3.80;;;;;;;40.38;15.85;99973.34;5112693;28;20374;-75
2021/07/30 09:28:07;;;;;;;6.38;4.05;;;;;;;39.23;17.16;99971.81;5112224;28;20055;-74
2021/07/30 09:30:33;;;;;;;4.80;3.33;;;;;;;38.66;17.75;99965.81;5112646;28;20024;-74
2021/07/30 09:33:01;;;;;;;6.88;3.60;;;;;;;39.61;16.97;99945.13;5112225;28;20172;-75
2021/07/30 09:35:29;;;;;;;8.63;3.70;;;;;;;39.48;16.97;99964.28;5129124;28;20058;-74
2021/07/30 09:38:15;;;;;;;6.32;3.42;;;;;;;39.40;17.74;99957.59;5114107;28;20034;-74
2021/07/30 09:40:41;;;;;;;6.90;3.67;;;;;;;38.53;17.28;99943.38;5115612;28;20046;-74
2021/07/30 09:43:24;;;;;;;7.97;3.45;;;;;;;39.56;16.92;99949.75;5115708;28;20032;-75
2021/07/30 09:45:59;;;;;;;6.57;3.70;;;;;;;39.83;16.73;99953.25;5116232;28;20048;-76
2021/07/30 09:48:48;;;;;;;8.75;3.85;;;;;;;38.67;17.32;99955.72;5115809;28;20038;-74
2021/07/30 09:51:15;;;;;;;9.32;4.25;;;;;;;39.16;16.42;99947.13;5132738;27;20482;-75
2021/07/30 09:53:43;;;;;;;15.02;8.65;;;;;;;39.49;15.85;99947.59;5115316;28;20058;-74
2021/07/30 09:56:10;;;;;;;20.38;8.23;;;;;;;40.11;15.20;99940.00;5116299;28;20023;-74
2021/07/30 09:58:36;;;;;;;10.98;7.05;;;;;;;40.26;15.61;99945.88;5115602;28;20505;-76
2021/07/30 10:01:02;;;;;;;9.57;6.13;;;;;;;40.89;14.48;99939.63;5115405;28;20043;-76
2021/07/30 10:03:29;;;;;;;14.75;4.97;;;;;;;40.25;14.81;99932.69;5115558;28;20034;-75
2021/07/30 10:05:55;;;;;;;8.23;4.30;;;;;;;41.21;14.34;99942.00;5114984;28;20020;-74
2021/07/30 10:08:21;;;;;;;5.57;3.90;;;;;;;40.09;15.19;99928.16;5115788;28;20027;-74
2021/07/30 10:10:46;;;;;;;11.32;3.42;;;;;;;39.84;14.49;99925.66;5115859;28;20409;-75
2021/07/30 10:13:16;;;;;;;11.13;3.72;;;;;;;39.50;14.97;99925.84;5115052;28;20035;-75
2021/07/30 10:15:43;;;;;;;17.42;8.43;;;;;;;39.86;15.41;99928.81;5099003;28;20055;-76
2021/07/30 10:18:11;;;;;;;29.48;12.10;;;;;;;39.13;15.15;99932.91;5114656;28;20100;-74
2021/07/30 10:20:38;;;;;;;16.60;5.75;;;;;;;39.52;15.27;99929.72;5115018;28;20110;-75
2021/07/30 10:23:14;;;;;;;7.40;3.38;;;;;;;38.91;16.22;99926.34;5115095;28;20028;-73
2021/07/30 10:25:42;;;;;;;10.95;3.63;;;;;;;39.15;15.66;99931.03;5114698;28;20023;-73
2021/07/30 10:28:19;;;;;;;10.45;3.20;;;;;;;39.34;15.93;99927.88;5132123;27;20034;-75
2021/07/30 10:30:58;;;;;;;12.95;3.60;;;;;;;39.93;14.80;99936.78;5114689;28;20027;-74
2021/07/30 10:33:33;;;;;;;8.30;3.08;;;;;;;39.33;14.93;99929.22;5114677;28;20057;-74
2021/07/30 10:36:00;;;;;;;14.02;3.25;;;;;;;39.81;15.22;99921.00;5115179;28;20057;-74
2021/07/30 10:38:26;;;;;;;11.13;3.15;;;;;;;39.95;14.46;99933.28;5132091;27;20351;-74
2021/07/30 10:41:00;;;;;;;5.90;3.10;;;;;;;39.60;14.81;99926.88;5114888;28;20031;-75
2021/07/30 10:43:33;;;;;;;8.32;3.83;;;;;;;40.35;15.10;99927.84;5114489;28;20083;-75
2021/07/30 10:46:11;;;;;;;7.90;3.10;;;;;;;40.64;14.27;99924.81;5114389;28;20019;-75
2021/07/30 10:48:57;;;;;;;12.65;3.60;;;;;;;40.65;14.87;99917.66;5114299;28;20084;-75
2021/07/30 10:51:27;;;;;;;7.75;3.33;;;;;;;39.82;16.16;99922.56;5113958;28;20032;-75
2021/07/30 10:53:56;;;;;;;7.40;3.67;;;;;;;39.60;15.79;99918.16;5115865;28;20486;-75
2021/07/30 10:56:21;;;;;;;9.73;4.07;;;;;;;40.13;15.42;99911.06;5114524;28;20035;-73
2021/07/30 10:58:50;;;;;;;6.05;3.20;;;;;;;39.90;15.71;99917.56;5114136;28;20367;-75
2021/07/30 11:01:19;;;;;;;8.35;3.65;;;;;;;40.54;15.09;99910.84;5114057;28;20030;-75
2021/07/30 11:03:53;;;;;;;8.05;3.42;;;;;;;40.09;15.56;99910.66;5131609;27;20027;-75
2021/07/30 11:06:30;;;;;;;8.23;2.97;;;;;;;40.32;15.79;99905.69;5114750;28;20028;-75
2021/07/30 11:09:04;;;;;;;8.82;3.25;;;;;;;39.85;15.72;99909.78;5131622;27;20483;-74
2021/07/30 11:11:36;;;;;;;7.30;3.10;;;;;;;39.54;15.98;99897.16;5113882;28;20023;-74
2021/07/30 11:14:11;;;;;;;14.50;4.18;;;;;;;39.16;16.38;99908.53;5114188;28;20377;-74
2021/07/30 11:16:37;;;;;;;6.07;3.28;;;;;;;38.98;16.88;99899.44;5113657;28;20542;-74
2021/07/30 11:19:06;;;;;;;6.95;3.13;;;;;;;39.01;17.55;99898.31;5131057;27;20115;-75
2021/07/30 11:21:33;;;;;;;9.63;3.30;;;;;;;38.47;17.47;99897.03;5114178;28;20039;-75
2021/07/30 11:23:59;;;;;;;6.50;3.33;;;;;;;39.00;17.42;99896.75;5113572;28;20019;-75
2021/07/30 11:26:24;;;;;;;5.32;3.72;;;;;;;38.83;17.22;99884.78;5130660;27;20474;-75
2021/07/30 11:28:59;;;;;;;9.15;3.30;;;;;;;39.22;16.41;99885.91;5113589;28;20130;-74
2021/07/30 11:31:25;;;;;;;10.77;3.58;;;;;;;39.26;16.18;99884.19;5113681;27;20024;-74
2021/07/30 11:33:51;;;;;;;5.70;3.17;;;;;;;39.28;16.17;99880.69;5113703;28;20024;-75